sensor_id;sensor_type;location;lat;lon;timestamp;P1;durP1;ratioP1;P2;durP2;ratioP2
50533;SDS011;60631;49.236;8.398;2022-09-29T00:00:55;11.80;;;6.05;;
50533;SDS011;60631;49.236;8.398;2022-09-29T00:03:56;10.20;;;5.15;;
50533;SDS011;60631;49.236;8.398;2022-09-29T00:06:57;10.80;;;6.28;;
50533;SDS011;60631;49.236;8.398;2022-09-29T00:09:58;11.60;;;6.25;;
50533;SDS011;60631;49.236;8.398;2022-09-29T00:12:59;14.15;;;6.57;;
50533;SDS011;60631;49.236;8.398;2022-09-29T00:16:00;10.73;;;6.88;;
50533;SDS011;60631;49.236;8.398;2022-09-29T00:19:02;14.90;;;6.18;;
50533;SDS011;60631;49.236;8.398;2022-09-29T00:22:04;12.07;;;6.65;;
50533;SDS011;60631;49.236;8.398;2022-09-29T00:25:05;10.57;;;6.40;;
50533;SDS011;60631;49.236;8.398;2022-09-29T00:28:06;13.13;;;6.60;;
50533;SDS011;60631;49.236;8.398;2022-09-29T00:31:08;10.45;;;5.93;;
50533;SDS011;60631;49.236;8.398;2022-09-29T00:34:10;11.57;;;6.80;;
50533;SDS011;60631;49.236;8.398;2022-09-29T00:37:11;13.07;;;6.75;;
50533;SDS011;60631;49.236;8.398;2022-09-29T00:40:13;13.80;;;6.65;;
50533;SDS011;60631;49.236;8.398;2022-09-29T00:43:18;12.82;;;6.30;;
50533;SDS011;60631;49.236;8.398;2022-09-29T00:49:58;11.60;;;5.87;;
50533;SDS011;60631;49.236;8.398;2022-09-29T00:53:03;12.23;;;5.80;;
50533;SDS011;60631;49.236;8.398;2022-09-29T00:56:12;13.32;;;6.72;;
50533;SDS011;60631;49.236;8.398;2022-09-29T00:59:16;10.40;;;6.32;;
50533;SDS011;60631;49.236;8.398;2022-09-29T01:02:22;12.48;;;6.43;;
50533;SDS011;60631;49.236;8.398;2022-09-29T01:05:28;11.90;;;6.05;;
50533;SDS011;60631;49.236;8.398;2022-09-29T01:11:48;14.18;;;6.93;;
50533;SDS011;60631;49.236;8.398;2022-09-29T01:14:52;13.18;;;6.85;;
50533;SDS011;60631;49.236;8.398;2022-09-29T01:17:53;14.07;;;6.70;;
50533;SDS011;60631;49.236;8.398;2022-09-29T01:41:11;13.55;;;6.65;;
50533;SDS011;60631;49.236;8.398;2022-09-29T01:47:51;12.80;;;5.95;;
50533;SDS011;60631;49.236;8.398;2022-09-29T01:50:55;10.80;;;6.50;;
50533;SDS011;60631;49.236;8.398;2022-09-29T01:54:01;10.70;;;6.22;;
50533;SDS011;60631;49.236;8.398;2022-09-29T01:57:06;10.13;;;6.13;;
50533;SDS011;60631;49.236;8.398;2022-09-29T02:06:37;14.50;;;6.53;;
50533;SDS011;60631;49.236;8.398;2022-09-29T02:09:45;12.05;;;6.93;;
50533;SDS011;60631;49.236;8.398;2022-09-29T02:12:48;13.05;;;6.30;;
50533;SDS011;60631;49.236;8.398;2022-09-29T02:15:53;11.83;;;5.87;;
50533;SDS011;60631;49.236;8.398;2022-09-29T02:19:00;10.15;;;5.82;;
50533;SDS011;60631;49.236;8.398;2022-09-29T02:22:05;11.38;;;6.30;;
50533;SDS011;60631;49.236;8.398;2022-09-29T02:25:07;12.63;;;6.18;;
50533;SDS011;60631;49.236;8.398;2022-09-29T02:28:11;12.80;;;5.97;;
50533;SDS011;60631;49.236;8.398;2022-09-29T02:31:13;12.55;;;6.00;;
50533;SDS011;60631;49.236;8.398;2022-09-29T02:34:17;13.43;;;6.15;;
50533;SDS011;60631;49.236;8.398;2022-09-29T02:37:26;12.30;;;6.05;;
50533;SDS011;60631;49.236;8.398;2022-09-29T02:40:46;12.65;;;6.45;;
50533;SDS011;60631;49.236;8.398;2022-09-29T02:50:31;13.95;;;6.65;;
50533;SDS011;60631;49.236;8.398;2022-09-29T03:00:23;11.77;;;6.57;;
50533;SDS011;60631;49.236;8.398;2022-09-29T03:03:26;11.02;;;6.53;;
50533;SDS011;60631;49.236;8.398;2022-09-29T03:06:27;12.27;;;6.50;;
50533;SDS011;60631;49.236;8.398;2022-09-29T03:09:28;13.05;;;6.82;;
50533;SDS011;60631;49.236;8.398;2022-09-29T03:12:29;15.63;;;7.70;;
50533;SDS011;60631;49.236;8.398;2022-09-29T03:15:30;13.32;;;7.03;;
50533;SDS011;60631;49.236;8.398;2022-09-29T03:18:31;14.18;;;6.90;;
50533;SDS011;60631;49.236;8.398;2022-09-29T03:21:32;13.20;;;6.68;;
50533;SDS011;60631;49.236;8.398;2022-09-29T03:24:33;12.05;;;7.10;;
50533;SDS011;60631;49.236;8.398;2022-09-29T03:27:35;15.15;;;7.60;;
50533;SDS011;60631;49.236;8.398;2022-09-29T03:30:37;17.02;;;8.18;;
50533;SDS011;60631;49.236;8.398;2022-09-29T03:33:39;17.15;;;9.48;;
50533;SDS011;60631;49.236;8.398;2022-09-29T03:36:40;15.55;;;8.07;;
50533;SDS011;60631;49.236;8.398;2022-09-29T03:39:41;15.95;;;8.13;;
50533;SDS011;60631;49.236;8.398;2022-09-29T03:42:44;14.38;;;8.05;;
50533;SDS011;60631;49.236;8.398;2022-09-29T03:45:52;16.17;;;7.50;;
50533;SDS011;60631;49.236;8.398;2022-09-29T03:48:54;16.67;;;7.07;;
50533;SDS011;60631;49.236;8.398;2022-09-29T03:51:55;18.63;;;6.70;;
50533;SDS011;60631;49.236;8.398;2022-09-29T03:54:56;14.65;;;7.07;;
50533;SDS011;60631;49.236;8.398;2022-09-29T03:57:57;14.98;;;6.78;;
50533;SDS011;60631;49.236;8.398;2022-09-29T04:00:58;16.25;;;7.18;;
50533;SDS011;60631;49.236;8.398;2022-09-29T04:04:00;18.20;;;7.32;;
50533;SDS011;60631;49.236;8.398;2022-09-29T04:07:02;16.83;;;6.72;;
50533;SDS011;60631;49.236;8.398;2022-09-29T04:10:03;19.13;;;6.82;;
50533;SDS011;60631;49.236;8.398;2022-09-29T04:13:04;17.75;;;6.85;;
50533;SDS011;60631;49.236;8.398;2022-09-29T04:16:06;22.23;;;6.70;;
50533;SDS011;60631;49.236;8.398;2022-09-29T04:19:07;22.83;;;7.00;;
50533;SDS011;60631;49.236;8.398;2022-09-29T04:22:08;28.17;;;7.53;;
50533;SDS011;60631;49.236;8.398;2022-09-29T04:25:09;30.30;;;6.82;;
50533;SDS011;60631;49.236;8.398;2022-09-29T04:28:10;31.17;;;6.93;;
50533;SDS011;60631;49.236;8.398;2022-09-29T04:31:11;29.20;;;6.90;;
50533;SDS011;60631;49.236;8.398;2022-09-29T04:34:12;39.00;;;6.60;;
50533;SDS011;60631;49.236;8.398;2022-09-29T04:37:14;31.17;;;6.70;;
50533;SDS011;60631;49.236;8.398;2022-09-29T04:40:15;20.33;;;6.25;;
50533;SDS011;60631;49.236;8.398;2022-09-29T04:43:17;55.30;;;8.45;;
50533;SDS011;60631;49.236;8.398;2022-09-29T04:46:18;24.88;;;6.45;;
50533;SDS011;60631;49.236;8.398;2022-09-29T04:49:19;48.10;;;8.18;;
50533;SDS011;60631;49.236;8.398;2022-09-29T04:52:20;33.40;;;7.70;;
50533;SDS011;60631;49.236;8.398;2022-09-29T04:55:21;20.52;;;6.40;;
50533;SDS011;60631;49.236;8.398;2022-09-29T04:58:22;37.03;;;7.80;;
50533;SDS011;60631;49.236;8.398;2022-09-29T05:01:23;19.83;;;6.95;;
50533;SDS011;60631;49.236;8.398;2022-09-29T05:04:25;24.33;;;7.63;;
50533;SDS011;60631;49.236;8.398;2022-09-29T05:07:26;23.15;;;7.05;;
50533;SDS011;60631;49.236;8.398;2022-09-29T05:10:27;17.05;;;6.95;;
50533;SDS011;60631;49.236;8.398;2022-09-29T05:13:28;18.85;;;6.38;;
50533;SDS011;60631;49.236;8.398;2022-09-29T05:16:29;15.75;;;6.80;;
50533;SDS011;60631;49.236;8.398;2022-09-29T05:19:30;19.55;;;6.50;;
50533;SDS011;60631;49.236;8.398;2022-09-29T05:22:31;18.58;;;5.82;;
50533;SDS011;60631;49.236;8.398;2022-09-29T05:25:32;21.60;;;6.35;;
50533;SDS011;60631;49.236;8.398;2022-09-29T05:28:35;25.83;;;6.30;;
50533;SDS011;60631;49.236;8.398;2022-09-29T05:31:36;23.50;;;6.82;;
50533;SDS011;60631;49.236;8.398;2022-09-29T05:34:37;16.20;;;6.22;;
50533;SDS011;60631;49.236;8.398;2022-09-29T05:37:38;26.83;;;7.35;;
50533;SDS011;60631;49.236;8.398;2022-09-29T05:40:39;37.33;;;6.95;;
50533;SDS011;60631;49.236;8.398;2022-09-29T05:43:40;25.80;;;6.85;;
50533;SDS011;60631;49.236;8.398;2022-09-29T05:46:41;35.50;;;7.30;;
50533;SDS011;60631;49.236;8.398;2022-09-29T05:49:42;32.60;;;7.90;;
50533;SDS011;60631;49.236;8.398;2022-09-29T05:52:43;47.78;;;16.55;;
50533;SDS011;60631;49.236;8.398;2022-09-29T05:55:49;29.02;;;8.07;;
50533;SDS011;60631;49.236;8.398;2022-09-29T05:58:50;26.60;;;7.85;;
50533;SDS011;60631;49.236;8.398;2022-09-29T06:01:52;25.15;;;6.88;;
50533;SDS011;60631;49.236;8.398;2022-09-29T06:04:53;24.95;;;8.07;;
50533;SDS011;60631;49.236;8.398;2022-09-29T06:07:54;22.42;;;7.78;;
50533;SDS011;60631;49.236;8.398;2022-09-29T06:11:00;17.63;;;6.25;;
50533;SDS011;60631;49.236;8.398;2022-09-29T06:14:02;15.63;;;6.90;;
50533;SDS011;60631;49.236;8.398;2022-09-29T06:17:03;16.58;;;7.00;;
50533;SDS011;60631;49.236;8.398;2022-09-29T06:20:05;16.95;;;6.38;;
50533;SDS011;60631;49.236;8.398;2022-09-29T06:23:06;19.30;;;8.40;;
50533;SDS011;60631;49.236;8.398;2022-09-29T06:26:08;19.58;;;6.65;;
50533;SDS011;60631;49.236;8.398;2022-09-29T06:29:11;14.98;;;8.85;;
50533;SDS011;60631;49.236;8.398;2022-09-29T06:32:12;12.73;;;5.85;;
50533;SDS011;60631;49.236;8.398;2022-09-29T06:35:13;15.80;;;10.65;;
50533;SDS011;60631;49.236;8.398;2022-09-29T06:38:33;12.35;;;5.70;;
50533;SDS011;60631;49.236;8.398;2022-09-29T06:41:34;12.88;;;8.00;;
50533;SDS011;60631;49.236;8.398;2022-09-29T06:44:35;13.73;;;6.43;;
50533;SDS011;60631;49.236;8.398;2022-09-29T06:47:36;16.73;;;7.80;;
50533;SDS011;60631;49.236;8.398;2022-09-29T06:50:37;16.73;;;7.85;;
50533;SDS011;60631;49.236;8.398;2022-09-29T06:53:38;15.07;;;7.72;;
50533;SDS011;60631;49.236;8.398;2022-09-29T06:56:39;18.58;;;9.45;;
50533;SDS011;60631;49.236;8.398;2022-09-29T06:59:40;13.25;;;6.97;;
50533;SDS011;60631;49.236;8.398;2022-09-29T07:02:44;11.85;;;6.35;;
50533;SDS011;60631;49.236;8.398;2022-09-29T07:05:46;10.95;;;6.22;;
50533;SDS011;60631;49.236;8.398;2022-09-29T07:08:52;11.50;;;5.82;;
50533;SDS011;60631;49.236;8.398;2022-09-29T07:11:53;12.70;;;5.97;;
50533;SDS011;60631;49.236;8.398;2022-09-29T07:14:54;10.07;;;5.57;;
50533;SDS011;60631;49.236;8.398;2022-09-29T07:17:56;10.63;;;5.63;;
50533;SDS011;60631;49.236;8.398;2022-09-29T07:20:58;9.02;;;5.90;;
50533;SDS011;60631;49.236;8.398;2022-09-29T07:24:00;7.63;;;4.90;;
50533;SDS011;60631;49.236;8.398;2022-09-29T07:27:01;9.02;;;5.15;;
50533;SDS011;60631;49.236;8.398;2022-09-29T07:30:02;13.63;;;6.03;;
50533;SDS011;60631;49.236;8.398;2022-09-29T07:33:04;12.18;;;5.80;;
50533;SDS011;60631;49.236;8.398;2022-09-29T07:36:05;13.65;;;7.70;;
50533;SDS011;60631;49.236;8.398;2022-09-29T07:39:06;12.55;;;5.80;;
50533;SDS011;60631;49.236;8.398;2022-09-29T07:42:07;12.05;;;5.97;;
50533;SDS011;60631;49.236;8.398;2022-09-29T07:45:08;12.45;;;6.85;;
50533;SDS011;60631;49.236;8.398;2022-09-29T07:48:09;31.05;;;15.38;;
50533;SDS011;60631;49.236;8.398;2022-09-29T07:51:12;48.28;;;23.50;;
50533;SDS011;60631;49.236;8.398;2022-09-29T07:54:14;15.75;;;8.43;;
50533;SDS011;60631;49.236;8.398;2022-09-29T07:57:15;10.55;;;5.55;;
50533;SDS011;60631;49.236;8.398;2022-09-29T08:00:16;13.05;;;8.43;;
50533;SDS011;60631;49.236;8.398;2022-09-29T08:03:17;12.65;;;6.43;;
50533;SDS011;60631;49.236;8.398;2022-09-29T08:06:18;15.95;;;9.63;;
50533;SDS011;60631;49.236;8.398;2022-09-29T08:09:20;13.45;;;7.10;;
50533;SDS011;60631;49.236;8.398;2022-09-29T08:12:21;12.15;;;6.57;;
50533;SDS011;60631;49.236;8.398;2022-09-29T08:15:23;11.45;;;6.05;;
50533;SDS011;60631;49.236;8.398;2022-09-29T08:18:24;10.30;;;5.80;;
50533;SDS011;60631;49.236;8.398;2022-09-29T08:21:27;12.23;;;6.55;;
50533;SDS011;60631;49.236;8.398;2022-09-29T08:24:29;11.00;;;6.05;;
50533;SDS011;60631;49.236;8.398;2022-09-29T08:27:31;11.60;;;6.57;;
50533;SDS011;60631;49.236;8.398;2022-09-29T08:30:34;11.27;;;6.60;;
50533;SDS011;60631;49.236;8.398;2022-09-29T08:33:35;11.63;;;6.43;;
50533;SDS011;60631;49.236;8.398;2022-09-29T08:36:37;19.73;;;11.25;;
50533;SDS011;60631;49.236;8.398;2022-09-29T08:39:38;23.38;;;13.57;;
50533;SDS011;60631;49.236;8.398;2022-09-29T08:49:42;12.77;;;6.50;;
50533;SDS011;60631;49.236;8.398;2022-09-29T08:52:55;10.32;;;6.15;;
50533;SDS011;60631;49.236;8.398;2022-09-29T08:56:07;12.32;;;6.40;;
50533;SDS011;60631;49.236;8.398;2022-09-29T08:59:10;10.95;;;6.18;;
50533;SDS011;60631;49.236;8.398;2022-09-29T09:02:18;12.05;;;6.43;;
50533;SDS011;60631;49.236;8.398;2022-09-29T09:08:52;12.18;;;6.63;;
50533;SDS011;60631;49.236;8.398;2022-09-29T09:15:53;13.35;;;7.65;;
50533;SDS011;60631;49.236;8.398;2022-09-29T09:18:59;12.95;;;7.90;;
50533;SDS011;60631;49.236;8.398;2022-09-29T09:25:34;12.98;;;8.05;;
50533;SDS011;60631;49.236;8.398;2022-09-29T09:38:24;12.48;;;7.93;;
50533;SDS011;60631;49.236;8.398;2022-09-29T09:41:28;13.77;;;8.43;;
50533;SDS011;60631;49.236;8.398;2022-09-29T09:44:34;14.02;;;8.20;;
50533;SDS011;60631;49.236;8.398;2022-09-29T09:47:37;11.35;;;7.32;;
50533;SDS011;60631;49.236;8.398;2022-09-29T09:50:42;11.10;;;7.28;;
50533;SDS011;60631;49.236;8.398;2022-09-29T09:53:43;11.45;;;7.75;;
50533;SDS011;60631;49.236;8.398;2022-09-29T09:56:49;12.18;;;8.13;;
50533;SDS011;60631;49.236;8.398;2022-09-29T10:03:13;11.77;;;7.60;;
50533;SDS011;60631;49.236;8.398;2022-09-29T10:06:16;9.38;;;6.88;;
50533;SDS011;60631;49.236;8.398;2022-09-29T10:09:17;10.13;;;7.00;;
50533;SDS011;60631;49.236;8.398;2022-09-29T10:12:20;9.20;;;6.93;;
50533;SDS011;60631;49.236;8.398;2022-09-29T10:18:51;10.13;;;6.45;;
50533;SDS011;60631;49.236;8.398;2022-09-29T10:21:52;8.55;;;6.00;;
50533;SDS011;60631;49.236;8.398;2022-09-29T10:24:53;8.30;;;6.25;;
50533;SDS011;60631;49.236;8.398;2022-09-29T10:28:11;7.47;;;5.63;;
50533;SDS011;60631;49.236;8.398;2022-09-29T10:31:31;8.10;;;6.05;;
50533;SDS011;60631;49.236;8.398;2022-09-29T10:34:39;8.15;;;5.97;;
50533;SDS011;60631;49.236;8.398;2022-09-29T10:37:42;8.20;;;5.95;;
50533;SDS011;60631;49.236;8.398;2022-09-29T10:40:53;9.30;;;6.60;;
50533;SDS011;60631;49.236;8.398;2022-09-29T10:44:05;9.02;;;6.72;;
50533;SDS011;60631;49.236;8.398;2022-09-29T10:47:20;8.88;;;7.57;;
50533;SDS011;60631;49.236;8.398;2022-09-29T10:53:34;10.50;;;6.88;;
50533;SDS011;60631;49.236;8.398;2022-09-29T10:56:43;8.45;;;6.30;;
50533;SDS011;60631;49.236;8.398;2022-09-29T10:59:46;10.13;;;6.68;;
50533;SDS011;60631;49.236;8.398;2022-09-29T11:02:48;6.85;;;5.70;;
50533;SDS011;60631;49.236;8.398;2022-09-29T11:05:55;7.90;;;6.03;;
50533;SDS011;60631;49.236;8.398;2022-09-29T11:09:04;8.85;;;5.75;;
50533;SDS011;60631;49.236;8.398;2022-09-29T11:15:28;8.40;;;6.03;;
50533;SDS011;60631;49.236;8.398;2022-09-29T11:18:38;6.43;;;5.13;;
50533;SDS011;60631;49.236;8.398;2022-09-29T11:29:00;7.32;;;5.38;;
50533;SDS011;60631;49.236;8.398;2022-09-29T11:38:59;6.32;;;5.50;;
50533;SDS011;60631;49.236;8.398;2022-09-29T11:45:30;7.50;;;5.32;;
50533;SDS011;60631;49.236;8.398;2022-09-29T11:49:28;6.53;;;5.18;;
50533;SDS011;60631;49.236;8.398;2022-09-29T12:01:58;6.22;;;5.63;;
50533;SDS011;60631;49.236;8.398;2022-09-29T12:05:34;6.25;;;4.85;;
50533;SDS011;60631;49.236;8.398;2022-09-29T12:18:14;6.40;;;4.00;;
50533;SDS011;60631;49.236;8.398;2022-09-29T12:21:40;6.80;;;4.50;;
50533;SDS011;60631;49.236;8.398;2022-09-29T12:24:46;6.68;;;4.60;;
50533;SDS011;60631;49.236;8.398;2022-09-29T12:27:56;6.05;;;4.05;;
50533;SDS011;60631;49.236;8.398;2022-09-29T12:31:08;5.55;;;4.80;;
50533;SDS011;60631;49.236;8.398;2022-09-29T12:41:24;5.28;;;3.85;;
50533;SDS011;60631;49.236;8.398;2022-09-29T12:44:34;4.68;;;3.83;;
50533;SDS011;60631;49.236;8.398;2022-09-29T12:47:52;4.20;;;3.72;;
50533;SDS011;60631;49.236;8.398;2022-09-29T12:57:29;3.78;;;3.35;;
50533;SDS011;60631;49.236;8.398;2022-09-29T13:00:34;5.10;;;3.20;;
50533;SDS011;60631;49.236;8.398;2022-09-29T13:20:31;5.68;;;3.30;;
50533;SDS011;60631;49.236;8.398;2022-09-29T13:30:18;4.32;;;2.83;;
50533;SDS011;60631;49.236;8.398;2022-09-29T13:33:22;4.70;;;2.63;;
50533;SDS011;60631;49.236;8.398;2022-09-29T13:36:28;4.53;;;3.05;;
50533;SDS011;60631;49.236;8.398;2022-09-29T13:39:35;5.20;;;2.97;;
50533;SDS011;60631;49.236;8.398;2022-09-29T13:42:46;4.60;;;2.85;;
50533;SDS011;60631;49.236;8.398;2022-09-29T13:45:48;4.28;;;2.90;;
50533;SDS011;60631;49.236;8.398;2022-09-29T13:48:50;4.25;;;2.83;;
50533;SDS011;60631;49.236;8.398;2022-09-29T13:51:53;5.30;;;2.80;;
50533;SDS011;60631;49.236;8.398;2022-09-29T14:01:42;3.05;;;2.25;;
50533;SDS011;60631;49.236;8.398;2022-09-29T14:04:45;4.85;;;2.58;;
50533;SDS011;60631;49.236;8.398;2022-09-29T14:14:24;4.07;;;2.13;;
50533;SDS011;60631;49.236;8.398;2022-09-29T14:17:30;5.97;;;2.70;;
50533;SDS011;60631;49.236;8.398;2022-09-29T14:20:35;4.22;;;2.60;;
50533;SDS011;60631;49.236;8.398;2022-09-29T14:29:54;3.33;;;2.67;;
50533;SDS011;60631;49.236;8.398;2022-09-29T14:33:13;4.40;;;2.65;;
50533;SDS011;60631;49.236;8.398;2022-09-29T14:36:23;3.40;;;2.50;;
50533;SDS011;60631;49.236;8.398;2022-09-29T14:39:25;4.07;;;2.60;;
50533;SDS011;60631;49.236;8.398;2022-09-29T14:42:27;4.07;;;2.70;;
50533;SDS011;60631;49.236;8.398;2022-09-29T14:45:31;3.83;;;2.85;;
50533;SDS011;60631;49.236;8.398;2022-09-29T15:02:20;3.13;;;1.95;;
50533;SDS011;60631;49.236;8.398;2022-09-29T15:08:27;4.10;;;2.95;;
50533;SDS011;60631;49.236;8.398;2022-09-29T15:14:36;3.60;;;2.40;;
50533;SDS011;60631;49.236;8.398;2022-09-29T15:27:16;4.25;;;2.60;;
50533;SDS011;60631;49.236;8.398;2022-09-29T15:30:18;3.72;;;2.58;;
50533;SDS011;60631;49.236;8.398;2022-09-29T15:33:24;5.22;;;2.90;;
50533;SDS011;60631;49.236;8.398;2022-09-29T15:36:36;3.80;;;2.40;;
50533;SDS011;60631;49.236;8.398;2022-09-29T15:39:42;3.83;;;2.65;;
50533;SDS011;60631;49.236;8.398;2022-09-29T15:42:44;3.58;;;2.47;;
50533;SDS011;60631;49.236;8.398;2022-09-29T15:46:21;3.25;;;2.38;;
50533;SDS011;60631;49.236;8.398;2022-09-29T15:49:28;3.97;;;2.25;;
50533;SDS011;60631;49.236;8.398;2022-09-29T15:52:29;3.25;;;2.47;;
50533;SDS011;60631;49.236;8.398;2022-09-29T15:55:31;3.58;;;2.25;;
50533;SDS011;60631;49.236;8.398;2022-09-29T15:58:33;3.85;;;2.58;;
50533;SDS011;60631;49.236;8.398;2022-09-29T16:01:36;5.22;;;2.67;;
50533;SDS011;60631;49.236;8.398;2022-09-29T16:04:37;5.85;;;2.75;;
50533;SDS011;60631;49.236;8.398;2022-09-29T16:07:40;6.50;;;2.67;;
50533;SDS011;60631;49.236;8.398;2022-09-29T16:14:00;3.88;;;2.50;;
50533;SDS011;60631;49.236;8.398;2022-09-29T16:17:11;4.45;;;2.50;;
50533;SDS011;60631;49.236;8.398;2022-09-29T16:20:13;3.20;;;2.22;;
50533;SDS011;60631;49.236;8.398;2022-09-29T16:26:48;7.40;;;3.83;;
50533;SDS011;60631;49.236;8.398;2022-09-29T16:30:03;3.10;;;2.00;;
50533;SDS011;60631;49.236;8.398;2022-09-29T16:33:13;2.35;;;2.15;;
50533;SDS011;60631;49.236;8.398;2022-09-29T16:36:22;6.20;;;2.72;;
50533;SDS011;60631;49.236;8.398;2022-09-29T16:39:27;4.05;;;2.75;;
50533;SDS011;60631;49.236;8.398;2022-09-29T16:42:32;3.58;;;2.78;;
50533;SDS011;60631;49.236;8.398;2022-09-29T16:45:34;3.88;;;2.80;;
50533;SDS011;60631;49.236;8.398;2022-09-29T16:48:37;4.10;;;3.00;;
50533;SDS011;60631;49.236;8.398;2022-09-29T16:51:42;4.22;;;2.58;;
50533;SDS011;60631;49.236;8.398;2022-09-29T16:54:45;2.65;;;2.00;;
50533;SDS011;60631;49.236;8.398;2022-09-29T17:00:58;3.22;;;2.03;;
50533;SDS011;60631;49.236;8.398;2022-09-29T17:03:59;3.85;;;2.00;;
50533;SDS011;60631;49.236;8.398;2022-09-29T17:07:00;1.95;;;1.83;;
50533;SDS011;60631;49.236;8.398;2022-09-29T17:10:02;3.63;;;1.92;;
50533;SDS011;60631;49.236;8.398;2022-09-29T17:13:10;2.40;;;1.63;;
50533;SDS011;60631;49.236;8.398;2022-09-29T17:16:16;3.45;;;2.35;;
50533;SDS011;60631;49.236;8.398;2022-09-29T17:19:23;2.50;;;1.90;;
50533;SDS011;60631;49.236;8.398;2022-09-29T17:22:34;2.90;;;2.08;;
50533;SDS011;60631;49.236;8.398;2022-09-29T17:25:40;2.08;;;1.80;;
50533;SDS011;60631;49.236;8.398;2022-09-29T17:28:45;3.13;;;1.75;;
50533;SDS011;60631;49.236;8.398;2022-09-29T17:31:46;2.88;;;1.85;;
50533;SDS011;60631;49.236;8.398;2022-09-29T17:34:47;2.45;;;1.60;;
50533;SDS011;60631;49.236;8.398;2022-09-29T17:37:48;3.45;;;1.90;;
50533;SDS011;60631;49.236;8.398;2022-09-29T17:40:51;1.70;;;1.58;;
50533;SDS011;60631;49.236;8.398;2022-09-29T17:46:55;2.25;;;1.98;;
50533;SDS011;60631;49.236;8.398;2022-09-29T17:49:58;2.42;;;2.03;;
50533;SDS011;60631;49.236;8.398;2022-09-29T17:53:30;1.92;;;1.50;;
50533;SDS011;60631;49.236;8.398;2022-09-29T17:56:31;2.67;;;1.70;;
50533;SDS011;60631;49.236;8.398;2022-09-29T17:59:37;2.58;;;1.98;;
50533;SDS011;60631;49.236;8.398;2022-09-29T18:02:39;2.47;;;2.00;;
50533;SDS011;60631;49.236;8.398;2022-09-29T18:05:41;4.13;;;2.17;;
50533;SDS011;60631;49.236;8.398;2022-09-29T18:08:44;2.88;;;2.00;;
50533;SDS011;60631;49.236;8.398;2022-09-29T18:11:45;4.72;;;1.77;;
50533;SDS011;60631;49.236;8.398;2022-09-29T18:14:47;4.18;;;1.80;;
50533;SDS011;60631;49.236;8.398;2022-09-29T18:17:48;2.35;;;1.67;;
50533;SDS011;60631;49.236;8.398;2022-09-29T18:20:49;3.08;;;1.80;;
50533;SDS011;60631;49.236;8.398;2022-09-29T18:23:51;2.42;;;1.85;;
50533;SDS011;60631;49.236;8.398;2022-09-29T18:26:52;3.08;;;1.58;;
50533;SDS011;60631;49.236;8.398;2022-09-29T18:29:53;2.20;;;1.92;;
50533;SDS011;60631;49.236;8.398;2022-09-29T18:32:55;4.30;;;2.03;;
50533;SDS011;60631;49.236;8.398;2022-09-29T18:36:00;3.65;;;2.03;;
50533;SDS011;60631;49.236;8.398;2022-09-29T18:39:01;2.90;;;1.95;;
50533;SDS011;60631;49.236;8.398;2022-09-29T18:42:02;2.20;;;2.00;;
50533;SDS011;60631;49.236;8.398;2022-09-29T18:45:03;2.15;;;1.95;;
50533;SDS011;60631;49.236;8.398;2022-09-29T18:48:05;2.85;;;2.28;;
50533;SDS011;60631;49.236;8.398;2022-09-29T18:51:07;3.80;;;1.90;;
50533;SDS011;60631;49.236;8.398;2022-09-29T18:54:12;2.20;;;1.98;;
50533;SDS011;60631;49.236;8.398;2022-09-29T18:57:13;3.70;;;2.25;;
50533;SDS011;60631;49.236;8.398;2022-09-29T19:00:15;2.65;;;2.13;;
50533;SDS011;60631;49.236;8.398;2022-09-29T19:03:17;2.53;;;2.33;;
50533;SDS011;60631;49.236;8.398;2022-09-29T19:06:19;3.90;;;2.28;;
50533;SDS011;60631;49.236;8.398;2022-09-29T19:09:21;2.72;;;2.47;;
50533;SDS011;60631;49.236;8.398;2022-09-29T19:12:22;3.92;;;2.85;;
50533;SDS011;60631;49.236;8.398;2022-09-29T19:15:27;2.70;;;2.42;;
50533;SDS011;60631;49.236;8.398;2022-09-29T19:18:28;3.55;;;2.50;;
50533;SDS011;60631;49.236;8.398;2022-09-29T19:21:29;6.43;;;2.50;;
50533;SDS011;60631;49.236;8.398;2022-09-29T19:24:32;6.18;;;2.67;;
50533;SDS011;60631;49.236;8.398;2022-09-29T19:27:33;4.80;;;2.80;;
50533;SDS011;60631;49.236;8.398;2022-09-29T19:30:37;4.47;;;2.53;;
50533;SDS011;60631;49.236;8.398;2022-09-29T19:33:40;2.92;;;2.40;;
50533;SDS011;60631;49.236;8.398;2022-09-29T19:36:42;3.58;;;2.50;;
50533;SDS011;60631;49.236;8.398;2022-09-29T19:39:43;4.25;;;2.95;;
50533;SDS011;60631;49.236;8.398;2022-09-29T19:42:44;5.53;;;2.58;;
50533;SDS011;60631;49.236;8.398;2022-09-29T19:45:45;4.03;;;2.90;;
50533;SDS011;60631;49.236;8.398;2022-09-29T19:48:46;2.78;;;2.50;;
50533;SDS011;60631;49.236;8.398;2022-09-29T19:51:47;3.45;;;3.08;;
50533;SDS011;60631;49.236;8.398;2022-09-29T19:54:57;4.82;;;2.78;;
50533;SDS011;60631;49.236;8.398;2022-09-29T19:57:58;4.95;;;2.85;;
50533;SDS011;60631;49.236;8.398;2022-09-29T20:01:01;14.15;;;8.90;;
50533;SDS011;60631;49.236;8.398;2022-09-29T20:04:02;12.40;;;7.43;;
50533;SDS011;60631;49.236;8.398;2022-09-29T20:07:04;6.25;;;4.60;;
50533;SDS011;60631;49.236;8.398;2022-09-29T20:10:06;6.35;;;4.72;;
50533;SDS011;60631;49.236;8.398;2022-09-29T20:13:11;7.75;;;5.68;;
50533;SDS011;60631;49.236;8.398;2022-09-29T20:16:14;7.40;;;5.05;;
50533;SDS011;60631;49.236;8.398;2022-09-29T20:19:16;8.40;;;4.45;;
50533;SDS011;60631;49.236;8.398;2022-09-29T20:22:18;5.18;;;4.20;;
50533;SDS011;60631;49.236;8.398;2022-09-29T20:25:19;7.57;;;5.05;;
50533;SDS011;60631;49.236;8.398;2022-09-29T20:28:21;9.32;;;5.88;;
50533;SDS011;60631;49.236;8.398;2022-09-29T20:31:22;6.85;;;4.90;;
50533;SDS011;60631;49.236;8.398;2022-09-29T20:34:23;6.72;;;5.05;;
50533;SDS011;60631;49.236;8.398;2022-09-29T20:37:24;6.30;;;4.63;;
50533;SDS011;60631;49.236;8.398;2022-09-29T20:40:27;5.28;;;4.22;;
50533;SDS011;60631;49.236;8.398;2022-09-29T20:43:29;5.93;;;5.05;;
50533;SDS011;60631;49.236;8.398;2022-09-29T20:46:30;5.90;;;4.65;;
50533;SDS011;60631;49.236;8.398;2022-09-29T20:49:31;5.20;;;4.43;;
50533;SDS011;60631;49.236;8.398;2022-09-29T20:52:33;6.72;;;4.70;;
50533;SDS011;60631;49.236;8.398;2022-09-29T20:55:34;5.43;;;4.00;;
50533;SDS011;60631;49.236;8.398;2022-09-29T20:58:35;6.38;;;4.13;;
50533;SDS011;60631;49.236;8.398;2022-09-29T21:01:36;5.38;;;4.10;;
50533;SDS011;60631;49.236;8.398;2022-09-29T21:04:37;5.68;;;3.78;;
50533;SDS011;60631;49.236;8.398;2022-09-29T21:07:38;7.30;;;4.03;;
50533;SDS011;60631;49.236;8.398;2022-09-29T21:10:39;5.68;;;4.20;;
50533;SDS011;60631;49.236;8.398;2022-09-29T21:13:41;5.60;;;4.25;;
50533;SDS011;60631;49.236;8.398;2022-09-29T21:19:50;4.45;;;3.40;;
50533;SDS011;60631;49.236;8.398;2022-09-29T21:22:51;5.45;;;3.85;;
50533;SDS011;60631;49.236;8.398;2022-09-29T21:26:02;5.45;;;3.70;;
50533;SDS011;60631;49.236;8.398;2022-09-29T21:29:12;4.88;;;3.58;;
50533;SDS011;60631;49.236;8.398;2022-09-29T21:32:15;6.47;;;3.45;;
50533;SDS011;60631;49.236;8.398;2022-09-29T21:35:17;4.63;;;3.28;;
50533;SDS011;60631;49.236;8.398;2022-09-29T21:38:18;7.45;;;3.70;;
50533;SDS011;60631;49.236;8.398;2022-09-29T21:41:23;4.05;;;3.20;;
50533;SDS011;60631;49.236;8.398;2022-09-29T21:44:28;4.72;;;3.63;;
50533;SDS011;60631;49.236;8.398;2022-09-29T21:47:29;6.90;;;3.97;;
50533;SDS011;60631;49.236;8.398;2022-09-29T21:50:48;3.58;;;2.97;;
50533;SDS011;60631;49.236;8.398;2022-09-29T21:53:50;4.00;;;3.22;;
50533;SDS011;60631;49.236;8.398;2022-09-29T21:56:52;3.53;;;2.85;;
50533;SDS011;60631;49.236;8.398;2022-09-29T21:59:53;3.22;;;2.92;;
50533;SDS011;60631;49.236;8.398;2022-09-29T22:02:54;3.72;;;3.30;;
50533;SDS011;60631;49.236;8.398;2022-09-29T22:05:55;4.97;;;3.05;;
50533;SDS011;60631;49.236;8.398;2022-09-29T22:08:57;25.05;;;3.80;;